sensor_id;sensor_type;location;lat;lon;timestamp;temperature;humidity
17252;DHT22;8742;51.716;8.790;2023-03-04T00:13:40;3.40;99.90
17252;DHT22;8742;51.716;8.790;2023-03-04T00:16:07;3.40;99.90
17252;DHT22;8742;51.716;8.790;2023-03-04T00:18:34;3.40;99.90
17252;DHT22;8742;51.716;8.790;2023-03-04T00:21:01;3.40;99.90
17252;DHT22;8742;51.716;8.790;2023-03-04T00:23:28;3.40;99.90
17252;DHT22;8742;51.716;8.790;2023-03-04T00:25:55;3.40;99.90
17252;DHT22;8742;51.716;8.790;2023-03-04T00:28:22;3.40;99.90
17252;DHT22;8742;51.716;8.790;2023-03-04T00:30:50;3.40;99.90
17252;DHT22;8742;51.716;8.790;2023-03-04T00:33:17;3.50;99.90
17252;DHT22;8742;51.716;8.790;2023-03-04T00:35:44;3.50;99.90
17252;DHT22;8742;51.716;8.790;2023-03-04T00:38:11;3.50;99.90
17252;DHT22;8742;51.716;8.790;2023-03-04T00:40:38;3.50;99.90
17252;DHT22;8742;51.716;8.790;2023-03-04T00:43:05;3.50;99.90
17252;DHT22;8742;51.716;8.790;2023-03-04T00:45:32;3.50;99.90
17252;DHT22;8742;51.716;8.790;2023-03-04T00:48:00;3.50;99.90
17252;DHT22;8742;51.716;8.790;2023-03-04T00:50:27;3.50;99.90
17252;DHT22;8742;51.716;8.790;2023-03-04T00:52:54;3.60;99.90
17252;DHT22;8742;51.716;8.790;2023-03-04T00:55:21;3.60;99.90
17252;DHT22;8742;51.716;8.790;2023-03-04T00:57:48;3.60;99.90
17252;DHT22;8742;51.716;8.790;2023-03-04T01:00:16;3.60;99.90
17252;DHT22;8742;51.716;8.790;2023-03-04T01:02:43;3.60;99.90
17252;DHT22;8742;51.716;8.790;2023-03-04T01:05:11;3.60;99.90
17252;DHT22;8742;51.716;8.790;2023-03-04T01:07:38;3.60;99.90
17252;DHT22;8742;51.716;8.790;2023-03-04T01:10:07;3.60;99.90
17252;DHT22;8742;51.716;8.790;2023-03-04T01:12:34;3.60;99.90
17252;DHT22;8742;51.716;8.790;2023-03-04T01:15:02;3.70;99.90
17252;DHT22;8742;51.716;8.790;2023-03-04T01:17:29;3.70;99.90
17252;DHT22;8742;51.716;8.790;2023-03-04T01:19:56;3.70;99.90
17252;DHT22;8742;51.716;8.790;2023-03-04T01:22:24;3.70;99.90
17252;DHT22;8742;51.716;8.790;2023-03-04T01:24:51;3.70;99.90
17252;DHT22;8742;51.716;8.790;2023-03-04T01:27:18;3.70;99.90
17252;DHT22;8742;51.716;8.790;2023-03-04T01:29:45;3.70;99.90
17252;DHT22;8742;51.716;8.790;2023-03-04T01:32:12;3.70;99.90
17252;DHT22;8742;51.716;8.790;2023-03-04T01:34:39;3.70;99.90
17252;DHT22;8742;51.716;8.790;2023-03-04T01:37:06;3.70;99.90
17252;DHT22;8742;51.716;8.790;2023-03-04T01:39:35;3.70;99.90
17252;DHT22;8742;51.716;8.790;2023-03-04T01:42:02;3.70;99.90
17252;DHT22;8742;51.716;8.790;2023-03-04T01:44:29;3.70;99.90
17252;DHT22;8742;51.716;8.790;2023-03-04T01:46:56;3.70;99.90
17252;DHT22;8742;51.716;8.790;2023-03-04T01:49:23;3.70;99.90
17252;DHT22;8742;51.716;8.790;2023-03-04T01:51:52;3.70;99.90
17252;DHT22;8742;51.716;8.790;2023-03-04T01:54:21;3.70;99.90
17252;DHT22;8742;51.716;8.790;2023-03-04T01:56:50;3.70;99.90
17252;DHT22;8742;51.716;8.790;2023-03-04T01:59:19;3.70;99.90
17252;DHT22;8742;51.716;8.790;2023-03-04T02:01:50;3.70;99.90
17252;DHT22;8742;51.716;8.790;2023-03-04T02:04:19;3.70;99.90
17252;DHT22;8742;51.716;8.790;2023-03-04T02:06:49;3.70;99.90
17252;DHT22;8742;51.716;8.790;2023-03-04T02:09:17;3.70;99.90
17252;DHT22;8742;51.716;8.790;2023-03-04T02:11:45;3.70;99.90
17252;DHT22;8742;51.716;8.790;2023-03-04T02:14:14;3.70;99.90
17252;DHT22;8742;51.716;8.790;2023-03-04T02:16:42;3.70;99.90
17252;DHT22;8742;51.716;8.790;2023-03-04T02:19:15;3.70;99.90
17252;DHT22;8742;51.716;8.790;2023-03-04T02:21:45;3.70;99.90
17252;DHT22;8742;51.716;8.790;2023-03-04T02:24:16;3.70;99.90
17252;DHT22;8742;51.716;8.790;2023-03-04T02:26:45;3.70;99.90
17252;DHT22;8742;51.716;8.790;2023-03-04T02:29:14;3.70;99.90
17252;DHT22;8742;51.716;8.790;2023-03-04T02:31:43;3.70;99.90
17252;DHT22;8742;51.716;8.790;2023-03-04T02:34:12;3.70;99.90
17252;DHT22;8742;51.716;8.790;2023-03-04T02:36:41;3.80;99.90
17252;DHT22;8742;51.716;8.790;2023-03-04T02:39:12;3.70;99.90
17252;DHT22;8742;51.716;8.790;2023-03-04T02:41:39;3.70;99.90
17252;DHT22;8742;51.716;8.790;2023-03-04T02:44:15;3.70;99.90
17252;DHT22;8742;51.716;8.790;2023-03-04T02:46:42;3.80;99.90
17252;DHT22;8742;51.716;8.790;2023-03-04T02:49:09;3.70;99.90
17252;DHT22;8742;51.716;8.790;2023-03-04T02:51:36;3.80;99.90
17252;DHT22;8742;51.716;8.790;2023-03-04T02:54:04;3.80;99.90
17252;DHT22;8742;51.716;8.790;2023-03-04T02:56:31;3.80;99.90
17252;DHT22;8742;51.716;8.790;2023-03-04T02:58:58;3.80;99.90
17252;DHT22;8742;51.716;8.790;2023-03-04T03:01:29;3.80;99.90
17252;DHT22;8742;51.716;8.790;2023-03-04T03:03:56;3.80;99.90
17252;DHT22;8742;51.716;8.790;2023-03-04T03:06:23;3.80;99.90
17252;DHT22;8742;51.716;8.790;2023-03-04T03:08:50;3.80;99.90
17252;DHT22;8742;51.716;8.790;2023-03-04T03:11:17;3.80;99.90
17252;DHT22;8742;51.716;8.790;2023-03-04T03:13:44;3.80;99.90
17252;DHT22;8742;51.716;8.790;2023-03-04T03:16:11;3.80;99.90
17252;DHT22;8742;51.716;8.790;2023-03-04T03:18:39;3.80;99.90
17252;DHT22;8742;51.716;8.790;2023-03-04T03:21:06;3.80;99.90
17252;DHT22;8742;51.716;8.790;2023-03-04T03:23:34;3.80;99.90
17252;DHT22;8742;51.716;8.790;2023-03-04T03:26:01;3.80;99.90
17252;DHT22;8742;51.716;8.790;2023-03-04T03:28:28;3.80;99.90
17252;DHT22;8742;51.716;8.790;2023-03-04T03:30:56;3.80;99.90
17252;DHT22;8742;51.716;8.790;2023-03-04T03:33:23;3.80;99.90
17252;DHT22;8742;51.716;8.790;2023-03-04T03:35:51;3.80;99.90
17252;DHT22;8742;51.716;8.790;2023-03-04T03:38:19;3.80;99.90
17252;DHT22;8742;51.716;8.790;2023-03-04T03:40:46;3.80;99.90
17252;DHT22;8742;51.716;8.790;2023-03-04T03:43:12;3.80;99.90
17252;DHT22;8742;51.716;8.790;2023-03-04T03:45:39;3.80;99.90
17252;DHT22;8742;51.716;8.790;2023-03-04T03:48:06;3.90;99.90
17252;DHT22;8742;51.716;8.790;2023-03-04T03:50:33;3.80;99.90
17252;DHT22;8742;51.716;8.790;2023-03-04T03:53:02;3.90;99.90
17252;DHT22;8742;51.716;8.790;2023-03-04T03:55:29;3.90;99.90
17252;DHT22;8742;51.716;8.790;2023-03-04T03:57:56;3.90;99.90
17252;DHT22;8742;51.716;8.790;2023-03-04T04:00:23;3.90;99.90
17252;DHT22;8742;51.716;8.790;2023-03-04T04:02:50;3.90;99.90
17252;DHT22;8742;51.716;8.790;2023-03-04T04:05:18;3.90;99.90
17252;DHT22;8742;51.716;8.790;2023-03-04T04:07:45;3.90;99.90
17252;DHT22;8742;51.716;8.790;2023-03-04T04:10:14;3.90;99.90
17252;DHT22;8742;51.716;8.790;2023-03-04T04:12:41;3.90;99.90
17252;DHT22;8742;51.716;8.790;2023-03-04T04:15:10;3.90;99.90
17252;DHT22;8742;51.716;8.790;2023-03-04T04:17:37;3.90;99.90
17252;DHT22;8742;51.716;8.790;2023-03-04T04:20:05;3.90;99.90
17252;DHT22;8742;51.716;8.790;2023-03-04T04:22:32;3.90;99.90
17252;DHT22;8742;51.716;8.790;2023-03-04T04:24:59;3.90;99.90
17252;DHT22;8742;51.716;8.790;2023-03-04T04:27:28;3.90;99.90
17252;DHT22;8742;51.716;8.790;2023-03-04T04:29:55;3.90;99.90
17252;DHT22;8742;51.716;8.790;2023-03-04T04:32:22;3.90;99.90
17252;DHT22;8742;51.716;8.790;2023-03-04T04:34:49;3.90;99.90
17252;DHT22;8742;51.716;8.790;2023-03-04T04:37:16;3.90;99.90
17252;DHT22;8742;51.716;8.790;2023-03-04T04:39:43;3.90;99.90
17252;DHT22;8742;51.716;8.790;2023-03-04T04:42:10;3.90;99.90
17252;DHT22;8742;51.716;8.790;2023-03-04T04:44:38;3.90;99.90
17252;DHT22;8742;51.716;8.790;2023-03-04T04:47:06;3.90;99.90
17252;DHT22;8742;51.716;8.790;2023-03-04T04:49:32;3.90;99.90
17252;DHT22;8742;51.716;8.790;2023-03-04T04:52:00;3.90;99.90
17252;DHT22;8742;51.716;8.790;2023-03-04T04:54:27;3.90;99.90
17252;DHT22;8742;51.716;8.790;2023-03-04T04:56:54;3.90;99.90
17252;DHT22;8742;51.716;8.790;2023-03-04T04:59:21;3.90;99.90
17252;DHT22;8742;51.716;8.790;2023-03-04T05:01:49;3.90;99.90
17252;DHT22;8742;51.716;8.790;2023-03-04T05:04:16;3.90;99.90
17252;DHT22;8742;51.716;8.790;2023-03-04T05:06:43;3.90;99.90
17252;DHT22;8742;51.716;8.790;2023-03-04T05:09:11;3.90;99.90
17252;DHT22;8742;51.716;8.790;2023-03-04T05:11:38;3.90;99.90
17252;DHT22;8742;51.716;8.790;2023-03-04T05:14:05;3.90;99.90
17252;DHT22;8742;51.716;8.790;2023-03-04T05:16:32;3.90;99.90
17252;DHT22;8742;51.716;8.790;2023-03-04T05:19:00;4.00;99.90
17252;DHT22;8742;51.716;8.790;2023-03-04T05:21:27;4.00;99.90
17252;DHT22;8742;51.716;8.790;2023-03-04T05:23:54;4.00;99.90
17252;DHT22;8742;51.716;8.790;2023-03-04T05:26:21;4.00;99.90
17252;DHT22;8742;51.716;8.790;2023-03-04T05:28:48;4.00;99.90
17252;DHT22;8742;51.716;8.790;2023-03-04T05:31:15;4.00;99.90
17252;DHT22;8742;51.716;8.790;2023-03-04T05:33:42;4.00;99.90
17252;DHT22;8742;51.716;8.790;2023-03-04T05:36:11;4.00;99.90
17252;DHT22;8742;51.716;8.790;2023-03-04T05:38:38;4.00;99.90
17252;DHT22;8742;51.716;8.790;2023-03-04T05:41:06;4.10;99.90
17252;DHT22;8742;51.716;8.790;2023-03-04T05:43:33;4.00;99.90
17252;DHT22;8742;51.716;8.790;2023-03-04T05:46:01;4.10;99.90
17252;DHT22;8742;51.716;8.790;2023-03-04T05:48:28;4.10;99.90
17252;DHT22;8742;51.716;8.790;2023-03-04T05:50:55;4.10;99.90
17252;DHT22;8742;51.716;8.790;2023-03-04T05:53:24;4.10;99.90
17252;DHT22;8742;51.716;8.790;2023-03-04T05:55:51;4.10;99.90
17252;DHT22;8742;51.716;8.790;2023-03-04T05:58:19;4.10;99.90
17252;DHT22;8742;51.716;8.790;2023-03-04T06:00:47;4.10;99.90
17252;DHT22;8742;51.716;8.790;2023-03-04T06:03:15;4.10;99.90
17252;DHT22;8742;51.716;8.790;2023-03-04T06:05:42;4.10;99.90
17252;DHT22;8742;51.716;8.790;2023-03-04T06:08:10;4.10;99.90
17252;DHT22;8742;51.716;8.790;2023-03-04T06:10:39;4.10;99.90
17252;DHT22;8742;51.716;8.790;2023-03-04T06:13:07;4.10;99.90
17252;DHT22;8742;51.716;8.790;2023-03-04T06:15:34;4.10;99.90
17252;DHT22;8742;51.716;8.790;2023-03-04T06:18:02;4.10;99.90
17252;DHT22;8742;51.716;8.790;2023-03-04T06:20:29;4.10;99.90
17252;DHT22;8742;51.716;8.790;2023-03-04T06:22:56;4.10;99.90
17252;DHT22;8742;51.716;8.790;2023-03-04T06:25:23;4.20;99.90
17252;DHT22;8742;51.716;8.790;2023-03-04T06:27:51;4.20;99.90
17252;DHT22;8742;51.716;8.790;2023-03-04T06:30:19;4.10;99.90
17252;DHT22;8742;51.716;8.790;2023-03-04T06:32:45;4.20;99.90
17252;DHT22;8742;51.716;8.790;2023-03-04T06:35:14;4.20;99.90
17252;DHT22;8742;51.716;8.790;2023-03-04T06:37:41;4.10;99.90
17252;DHT22;8742;51.716;8.790;2023-03-04T06:40:09;4.10;99.90
17252;DHT22;8742;51.716;8.790;2023-03-04T06:42:37;4.20;99.90
17252;DHT22;8742;51.716;8.790;2023-03-04T06:45:07;4.20;99.90
17252;DHT22;8742;51.716;8.790;2023-03-04T06:47:34;4.20;99.90
17252;DHT22;8742;51.716;8.790;2023-03-04T06:50:01;4.20;99.90
17252;DHT22;8742;51.716;8.790;2023-03-04T06:52:29;4.20;99.90
17252;DHT22;8742;51.716;8.790;2023-03-04T06:54:56;4.20;99.90
17252;DHT22;8742;51.716;8.790;2023-03-04T06:57:23;4.30;99.90
17252;DHT22;8742;51.716;8.790;2023-03-04T06:59:50;4.30;99.90
17252;DHT22;8742;51.716;8.790;2023-03-04T07:02:18;4.30;99.90
17252;DHT22;8742;51.716;8.790;2023-03-04T07:04:45;4.30;99.90
17252;DHT22;8742;51.716;8.790;2023-03-04T07:07:12;4.40;99.90
17252;DHT22;8742;51.716;8.790;2023-03-04T07:09:40;4.40;99.90
17252;DHT22;8742;51.716;8.790;2023-03-04T07:12:07;4.50;99.90
17252;DHT22;8742;51.716;8.790;2023-03-04T07:14:34;4.50;99.90
17252;DHT22;8742;51.716;8.790;2023-03-04T07:17:01;4.60;99.90
17252;DHT22;8742;51.716;8.790;2023-03-04T07:19:29;4.60;99.90
17252;DHT22;8742;51.716;8.790;2023-03-04T07:21:56;4.70;99.90
17252;DHT22;8742;51.716;8.790;2023-03-04T07:24:23;4.80;99.90
17252;DHT22;8742;51.716;8.790;2023-03-04T07:26:50;4.90;99.90
17252;DHT22;8742;51.716;8.790;2023-03-04T07:29:17;5.00;99.90
17252;DHT22;8742;51.716;8.790;2023-03-04T07:31:44;5.00;99.90
17252;DHT22;8742;51.716;8.790;2023-03-04T07:34:12;5.10;99.90
17252;DHT22;8742;51.716;8.790;2023-03-04T07:36:41;5.20;99.90
17252;DHT22;8742;51.716;8.790;2023-03-04T07:39:10;5.30;99.90
17252;DHT22;8742;51.716;8.790;2023-03-04T07:41:39;5.40;99.90
17252;DHT22;8742;51.716;8.790;2023-03-04T07:44:08;5.50;99.90
17252;DHT22;8742;51.716;8.790;2023-03-04T07:46:36;5.60;99.90
17252;DHT22;8742;51.716;8.790;2023-03-04T07:49:03;5.60;99.90
17252;DHT22;8742;51.716;8.790;2023-03-04T07:51:30;5.60;99.90
17252;DHT22;8742;51.716;8.790;2023-03-04T07:54:00;5.60;99.90
17252;DHT22;8742;51.716;8.790;2023-03-04T07:56:28;5.60;99.90
17252;DHT22;8742;51.716;8.790;2023-03-04T07:58:55;5.70;99.90
17252;DHT22;8742;51.716;8.790;2023-03-04T08:01:24;5.80;99.90
17252;DHT22;8742;51.716;8.790;2023-03-04T08:03:51;5.90;99.90
17252;DHT22;8742;51.716;8.790;2023-03-04T08:06:19;5.90;99.90
17252;DHT22;8742;51.716;8.790;2023-03-04T08:08:47;5.90;99.90
17252;DHT22;8742;51.716;8.790;2023-03-04T08:11:18;6.00;99.90
17252;DHT22;8742;51.716;8.790;2023-03-04T08:13:45;6.00;99.90
17252;DHT22;8742;51.716;8.790;2023-03-04T08:16:12;6.00;99.90
17252;DHT22;8742;51.716;8.790;2023-03-04T08:18:40;6.00;99.90
17252;DHT22;8742;51.716;8.790;2023-03-04T08:21:08;6.00;99.90
17252;DHT22;8742;51.716;8.790;2023-03-04T08:23:36;6.10;99.90
17252;DHT22;8742;51.716;8.790;2023-03-04T08:26:06;6.20;99.90
17252;DHT22;8742;51.716;8.790;2023-03-04T08:28:34;6.20;99.90
17252;DHT22;8742;51.716;8.790;2023-03-04T08:31:02;6.20;99.90
17252;DHT22;8742;51.716;8.790;2023-03-04T08:33:29;6.20;99.90
17252;DHT22;8742;51.716;8.790;2023-03-04T08:35:56;6.20;99.90
17252;DHT22;8742;51.716;8.790;2023-03-04T08:38:23;6.20;99.90
17252;DHT22;8742;51.716;8.790;2023-03-04T08:40:53;6.10;99.90
17252;DHT22;8742;51.716;8.790;2023-03-04T08:43:20;6.00;99.90
17252;DHT22;8742;51.716;8.790;2023-03-04T08:45:49;5.90;99.90
17252;DHT22;8742;51.716;8.790;2023-03-04T08:48:17;5.90;99.90
17252;DHT22;8742;51.716;8.790;2023-03-04T08:50:44;5.90;99.90
17252;DHT22;8742;51.716;8.790;2023-03-04T08:53:12;5.80;99.90
17252;DHT22;8742;51.716;8.790;2023-03-04T08:55:39;5.80;99.90
17252;DHT22;8742;51.716;8.790;2023-03-04T08:58:07;5.80;99.90
17252;DHT22;8742;51.716;8.790;2023-03-04T09:00:36;5.80;99.90
17252;DHT22;8742;51.716;8.790;2023-03-04T09:03:04;5.90;99.90
17252;DHT22;8742;51.716;8.790;2023-03-04T09:05:32;5.90;99.90
17252;DHT22;8742;51.716;8.790;2023-03-04T09:07:58;5.90;99.90
17252;DHT22;8742;51.716;8.790;2023-03-04T09:10:25;5.90;99.90
17252;DHT22;8742;51.716;8.790;2023-03-04T09:12:52;6.00;99.90
17252;DHT22;8742;51.716;8.790;2023-03-04T09:15:19;6.00;99.90
17252;DHT22;8742;51.716;8.790;2023-03-04T09:17:46;6.00;99.90
17252;DHT22;8742;51.716;8.790;2023-03-04T09:20:14;6.00;99.90
17252;DHT22;8742;51.716;8.790;2023-03-04T09:22:41;5.90;99.90
17252;DHT22;8742;51.716;8.790;2023-03-04T09:25:10;5.80;99.90
17252;DHT22;8742;51.716;8.790;2023-03-04T09:27:39;5.80;99.90
17252;DHT22;8742;51.716;8.790;2023-03-04T09:30:07;5.70;99.90
17252;DHT22;8742;51.716;8.790;2023-03-04T09:32:34;5.70;99.90
17252;DHT22;8742;51.716;8.790;2023-03-04T09:35:01;5.80;99.90
17252;DHT22;8742;51.716;8.790;2023-03-04T09:37:29;5.80;99.90
17252;DHT22;8742;51.716;8.790;2023-03-04T09:39:56;5.80;99.90
17252;DHT22;8742;51.716;8.790;2023-03-04T09:42:26;5.80;99.90
17252;DHT22;8742;51.716;8.790;2023-03-04T09:44:54;5.80;99.90
17252;DHT22;8742;51.716;8.790;2023-03-04T09:47:22;5.80;99.90
17252;DHT22;8742;51.716;8.790;2023-03-04T09:49:53;5.80;99.90
17252;DHT22;8742;51.716;8.790;2023-03-04T09:52:32;5.80;99.90
17252;DHT22;8742;51.716;8.790;2023-03-04T09:55:11;5.80;99.90
17252;DHT22;8742;51.716;8.790;2023-03-04T09:57:50;5.80;99.90
17252;DHT22;8742;51.716;8.790;2023-03-04T10:00:21;5.80;99.90
17252;DHT22;8742;51.716;8.790;2023-03-04T10:03:08;5.90;99.90
17252;DHT22;8742;51.716;8.790;2023-03-04T10:05:39;5.90;99.90
17252;DHT22;8742;51.716;8.790;2023-03-04T10:08:30;5.90;99.90
17252;DHT22;8742;51.716;8.790;2023-03-04T10:11:01;5.90;99.90
17252;DHT22;8742;51.716;8.790;2023-03-04T10:13:32;6.00;99.90
17252;DHT22;8742;51.716;8.790;2023-03-04T10:16:02;6.00;99.90
17252;DHT22;8742;51.716;8.790;2023-03-04T10:18:35;6.00;99.90
17252;DHT22;8742;51.716;8.790;2023-03-04T10:21:18;6.00;99.90
17252;DHT22;8742;51.716;8.790;2023-03-04T10:23:48;6.00;99.90
17252;DHT22;8742;51.716;8.790;2023-03-04T10:26:17;6.00;99.90
17252;DHT22;8742;51.716;8.790;2023-03-04T10:28:45;6.00;99.90
17252;DHT22;8742;51.716;8.790;2023-03-04T10:31:18;5.90;99.90
17252;DHT22;8742;51.716;8.790;2023-03-04T10:33:47;5.90;99.90
17252;DHT22;8742;51.716;8.790;2023-03-04T10:39:07;5.90;99.90
17252;DHT22;8742;51.716;8.790;2023-03-04T10:41:34;5.80;99.90
17252;DHT22;8742;51.716;8.790;2023-03-04T10:44:14;5.90;99.90
17252;DHT22;8742;51.716;8.790;2023-03-04T10:46:42;5.90;99.90
17252;DHT22;8742;51.716;8.790;2023-03-04T10:49:09;5.90;99.90
17252;DHT22;8742;51.716;8.790;2023-03-04T10:51:42;6.00;99.90
17252;DHT22;8742;51.716;8.790;2023-03-04T10:54:25;6.00;99.90
17252;DHT22;8742;51.716;8.790;2023-03-04T10:56:55;6.10;99.90
17252;DHT22;8742;51.716;8.790;2023-03-04T10:59:32;6.10;99.90
17252;DHT22;8742;51.716;8.790;2023-03-04T11:02:00;6.10;99.90
17252;DHT22;8742;51.716;8.790;2023-03-04T11:04:33;6.10;99.90
17252;DHT22;8742;51.716;8.790;2023-03-04T11:06:59;6.10;99.90
17252;DHT22;8742;51.716;8.790;2023-03-04T11:09:29;6.10;99.90
17252;DHT22;8742;51.716;8.790;2023-03-04T11:11:59;6.00;99.90
17252;DHT22;8742;51.716;8.790;2023-03-04T11:14:28;6.00;99.90
17252;DHT22;8742;51.716;8.790;2023-03-04T11:16:57;6.00;99.90
17252;DHT22;8742;51.716;8.790;2023-03-04T11:19:29;6.00;99.90
17252;DHT22;8742;51.716;8.790;2023-03-04T11:21:57;6.00;99.90
17252;DHT22;8742;51.716;8.790;2023-03-04T11:24:28;6.10;99.90
17252;DHT22;8742;51.716;8.790;2023-03-04T11:27:00;6.30;99.90
17252;DHT22;8742;51.716;8.790;2023-03-04T11:29:32;6.50;99.90
17252;DHT22;8742;51.716;8.790;2023-03-04T11:32:06;6.70;99.90
17252;DHT22;8742;51.716;8.790;2023-03-04T11:34:38;6.80;99.90
17252;DHT22;8742;51.716;8.790;2023-03-04T11:37:11;6.90;99.90
17252;DHT22;8742;51.716;8.790;2023-03-04T11:39:45;6.90;99.90
17252;DHT22;8742;51.716;8.790;2023-03-04T11:42:20;6.90;99.90
17252;DHT22;8742;51.716;8.790;2023-03-04T11:44:49;6.90;99.90
17252;DHT22;8742;51.716;8.790;2023-03-04T11:47:41;6.80;99.90
17252;DHT22;8742;51.716;8.790;2023-03-04T11:50:30;6.80;99.90
17252;DHT22;8742;51.716;8.790;2023-03-04T11:56:01;6.70;99.90
17252;DHT22;8742;51.716;8.790;2023-03-04T11:58:48;6.70;99.90
17252;DHT22;8742;51.716;8.790;2023-03-04T12:01:21;6.60;99.90
17252;DHT22;8742;51.716;8.790;2023-03-04T12:04:02;6.60;99.90
17252;DHT22;8742;51.716;8.790;2023-03-04T12:06:36;6.50;99.90
17252;DHT22;8742;51.716;8.790;2023-03-04T12:09:20;6.50;99.90
17252;DHT22;8742;51.716;8.790;2023-03-04T12:12:01;6.50;99.90
17252;DHT22;8742;51.716;8.790;2023-03-04T12:14:35;6.70;99.90
17252;DHT22;8742;51.716;8.790;2023-03-04T12:17:28;7.20;99.90
17252;DHT22;8742;51.716;8.790;2023-03-04T12:22:51;7.80;99.90
17252;DHT22;8742;51.716;8.790;2023-03-04T12:25:36;7.90;99.90
17252;DHT22;8742;51.716;8.790;2023-03-04T12:28:21;7.90;99.90
17252;DHT22;8742;51.716;8.790;2023-03-04T12:31:01;7.90;99.90
17252;DHT22;8742;51.716;8.790;2023-03-04T12:33:37;7.80;99.90
17252;DHT22;8742;51.716;8.790;2023-03-04T12:36:11;7.60;99.90
17252;DHT22;8742;51.716;8.790;2023-03-04T12:38:57;7.50;99.90
17252;DHT22;8742;51.716;8.790;2023-03-04T12:41:31;7.40;99.90
17252;DHT22;8742;51.716;8.790;2023-03-04T12:44:13;7.30;99.90
17252;DHT22;8742;51.716;8.790;2023-03-04T12:47:02;7.20;99.90
17252;DHT22;8742;51.716;8.790;2023-03-04T12:49:46;7.00;99.90
17252;DHT22;8742;51.716;8.790;2023-03-04T12:52:25;7.00;99.90
17252;DHT22;8742;51.716;8.790;2023-03-04T12:54:59;7.00;99.90
17252;DHT22;8742;51.716;8.790;2023-03-04T12:57:28;7.10;99.90
17252;DHT22;8742;51.716;8.790;2023-03-04T13:00:07;7.20;99.90
17252;DHT22;8742;51.716;8.790;2023-03-04T13:05:49;7.40;99.90
17252;DHT22;8742;51.716;8.790;2023-03-04T13:08:30;7.50;99.90
17252;DHT22;8742;51.716;8.790;2023-03-04T13:11:01;7.60;99.90
17252;DHT22;8742;51.716;8.790;2023-03-04T13:13:38;7.50;99.90
17252;DHT22;8742;51.716;8.790;2023-03-04T13:16:29;7.50;99.90
17252;DHT22;8742;51.716;8.790;2023-03-04T13:18:57;7.50;99.90
17252;DHT22;8742;51.716;8.790;2023-03-04T13:21:25;7.40;99.90
17252;DHT22;8742;51.716;8.790;2023-03-04T13:23:53;7.40;99.90
17252;DHT22;8742;51.716;8.790;2023-03-04T13:26:23;7.40;99.90
17252;DHT22;8742;51.716;8.790;2023-03-04T13:32:01;7.30;99.90
17252;DHT22;8742;51.716;8.790;2023-03-04T13:34:49;7.30;99.90
17252;DHT22;8742;51.716;8.790;2023-03-04T13:37:39;7.20;99.90
17252;DHT22;8742;51.716;8.790;2023-03-04T13:40:33;7.20;99.90
17252;DHT22;8742;51.716;8.790;2023-03-04T13:43:24;7.20;99.90
17252;DHT22;8742;51.716;8.790;2023-03-04T13:45:50;7.30;99.90
17252;DHT22;8742;51.716;8.790;2023-03-04T13:48:29;7.40;99.90
17252;DHT22;8742;51.716;8.790;2023-03-04T13:50:56;7.60;99.90
17252;DHT22;8742;51.716;8.790;2023-03-04T13:53:42;7.70;99.90
17252;DHT22;8742;51.716;8.790;2023-03-04T13:56:20;7.80;99.90
17252;DHT22;8742;51.716;8.790;2023-03-04T13:58:49;7.90;99.90
17252;DHT22;8742;51.716;8.790;2023-03-04T14:01:27;8.00;99.90
17252;DHT22;8742;51.716;8.790;2023-03-04T14:03:58;8.00;99.90
17252;DHT22;8742;51.716;8.790;2023-03-04T14:06:26;8.10;99.90
17252;DHT22;8742;51.716;8.790;2023-03-04T14:08:54;8.10;99.90
17252;DHT22;8742;51.716;8.790;2023-03-04T14:11:27;8.20;99.90
17252;DHT22;8742;51.716;8.790;2023-03-04T14:13:57;8.20;99.90
17252;DHT22;8742;51.716;8.790;2023-03-04T14:16:27;8.20;99.90
17252;DHT22;8742;51.716;8.790;2023-03-04T14:19:00;8.30;99.90
17252;DHT22;8742;51.716;8.790;2023-03-04T14:21:28;8.30;99.90
17252;DHT22;8742;51.716;8.790;2023-03-04T14:24:04;8.40;99.90
17252;DHT22;8742;51.716;8.790;2023-03-04T14:26:31;8.50;99.90
17252;DHT22;8742;51.716;8.790;2023-03-04T14:28:59;8.50;99.90
17252;DHT22;8742;51.716;8.790;2023-03-04T14:31:29;8.50;99.90
17252;DHT22;8742;51.716;8.790;2023-03-04T14:33:58;8.40;99.90
17252;DHT22;8742;51.716;8.790;2023-03-04T14:36:29;8.40;99.90
17252;DHT22;8742;51.716;8.790;2023-03-04T14:38:59;8.30;99.90
17252;DHT22;8742;51.716;8.790;2023-03-04T14:41:28;8.20;99.90
17252;DHT22;8742;51.716;8.790;2023-03-04T14:44:02;8.10;99.90
17252;DHT22;8742;51.716;8.790;2023-03-04T14:46:35;8.00;99.90
17252;DHT22;8742;51.716;8.790;2023-03-04T14:49:08;7.90;99.90
17252;DHT22;8742;51.716;8.790;2023-03-04T14:51:43;7.70;99.90
17252;DHT22;8742;51.716;8.790;2023-03-04T14:54:31;7.60;99.90
17252;DHT22;8742;51.716;8.790;2023-03-04T14:57:00;7.60;99.90
17252;DHT22;8742;51.716;8.790;2023-03-04T14:59:29;7.50;99.90
17252;DHT22;8742;51.716;8.790;2023-03-04T15:02:15;7.50;99.90
17252;DHT22;8742;51.716;8.790;2023-03-04T15:04:45;7.40;99.90
17252;DHT22;8742;51.716;8.790;2023-03-04T15:07:14;7.40;99.90
17252;DHT22;8742;51.716;8.790;2023-03-04T15:09:49;7.30;99.90
17252;DHT22;8742;51.716;8.790;2023-03-04T15:12:22;7.20;99.90
17252;DHT22;8742;51.716;8.790;2023-03-04T15:14:51;7.10;99.90
17252;DHT22;8742;51.716;8.790;2023-03-04T15:17:24;7.10;99.90
17252;DHT22;8742;51.716;8.790;2023-03-04T15:20:00;7.10;99.90
17252;DHT22;8742;51.716;8.790;2023-03-04T15:22:28;7.00;99.90
17252;DHT22;8742;51.716;8.790;2023-03-04T15:24:55;7.00;99.90
17252;DHT22;8742;51.716;8.790;2023-03-04T15:27:23;7.00;99.90
17252;DHT22;8742;51.716;8.790;2023-03-04T15:29:50;7.00;99.90
17252;DHT22;8742;51.716;8.790;2023-03-04T15:32:21;7.00;99.90
17252;DHT22;8742;51.716;8.790;2023-03-04T15:34:48;7.00;99.90
17252;DHT22;8742;51.716;8.790;2023-03-04T15:37:20;7.00;99.90
17252;DHT22;8742;51.716;8.790;2023-03-04T15:39:47;7.00;99.90
17252;DHT22;8742;51.716;8.790;2023-03-04T15:42:14;7.00;99.90
17252;DHT22;8742;51.716;8.790;2023-03-04T15:44:41;7.00;99.90
17252;DHT22;8742;51.716;8.790;2023-03-04T15:47:09;7.00;99.90
17252;DHT22;8742;51.716;8.790;2023-03-04T15:49:37;7.00;99.90
17252;DHT22;8742;51.716;8.790;2023-03-04T15:52:06;7.00;99.90
17252;DHT22;8742;51.716;8.790;2023-03-04T15:54:34;7.10;99.90
17252;DHT22;8742;51.716;8.790;2023-03-04T15:57:03;7.10;99.90
17252;DHT22;8742;51.716;8.790;2023-03-04T15:59:30;7.00;99.90
17252;DHT22;8742;51.716;8.790;2023-03-04T16:01:57;7.00;99.90
17252;DHT22;8742;51.716;8.790;2023-03-04T16:04:24;7.00;99.90
17252;DHT22;8742;51.716;8.790;2023-03-04T16:06:51;6.90;99.90
17252;DHT22;8742;51.716;8.790;2023-03-04T16:09:18;6.80;99.90
17252;DHT22;8742;51.716;8.790;2023-03-04T16:11:47;6.80;99.90
17252;DHT22;8742;51.716;8.790;2023-03-04T16:14:15;6.70;99.90
17252;DHT22;8742;51.716;8.790;2023-03-04T16:16:42;6.70;99.90
17252;DHT22;8742;51.716;8.790;2023-03-04T16:19:11;6.60;99.90
17252;DHT22;8742;51.716;8.790;2023-03-04T16:21:38;6.50;99.90
17252;DHT22;8742;51.716;8.790;2023-03-04T16:24:05;6.50;99.90
17252;DHT22;8742;51.716;8.790;2023-03-04T16:26:36;6.40;99.90
17252;DHT22;8742;51.716;8.790;2023-03-04T16:29:04;6.40;99.90
17252;DHT22;8742;51.716;8.790;2023-03-04T16:31:31;6.40;99.90
17252;DHT22;8742;51.716;8.790;2023-03-04T16:33:58;6.30;99.90
17252;DHT22;8742;51.716;8.790;2023-03-04T16:36:26;6.30;99.90
17252;DHT22;8742;51.716;8.790;2023-03-04T16:38:54;6.30;99.90
17252;DHT22;8742;51.716;8.790;2023-03-04T16:41:25;6.30;99.90
17252;DHT22;8742;51.716;8.790;2023-03-04T16:43:52;6.20;99.90
17252;DHT22;8742;51.716;8.790;2023-03-04T16:46:20;6.20;99.90